Time;durP1;ratioP1;P1;durP2;ratioP2;P2;SDS_P1;SDS_P2;PMS_P1;PMS_P2;Temp;Humidity;BMP_temperature;BMP_pressure;BME280_temperature;BME280_humidity;BME280_pressure;Samples;Min_cycle;Max_cycle;Signal;HPM_P1;HPM_P2
2023/05/13 00:00:15;;;;;;;;;;;;;;;;;;2055738;29;20023;-86
2023/05/13 00:01:15;;;;;;;6.22;4.15;;;;;;;;;;1689429;29;10366795;-86
2023/05/13 00:02:16;;;;;;;;;;;;;;;;;;2047578;29;20078;-87
2023/05/13 00:03:16;;;;;;;7.63;4.87;;;;;;;;;;2047094;29;19978;-86
2023/05/13 00:04:16;;;;;;;6.47;5.15;;;;;;;;;;2046791;29;20037;-86
2023/05/13 00:05:17;;;;;;;;;;;;;;;;;;2056227;28;20113;-87
2023/05/13 00:06:17;;;;;;;4.75;3.92;;;;;;;;;;1703704;28;10259310;-87
2023/05/13 00:07:18;;;;;;;5.13;4.20;;;;;;;;;;2055341;28;20049;-87
2023/05/13 00:08:19;;;;;;;;;;;;;;;;;;2055945;28;20030;-87
2023/05/13 00:09:19;;;;;;;4.87;4.03;;;;;;;;;;2046762;29;19986;-87
2023/05/13 00:10:19;;;;;;;7.45;4.50;;;;;;;;;;2038904;29;20171;-86
2023/05/13 00:11:20;;;;;;;5.47;4.60;;;;;;;;;;2046791;29;20118;-86
2023/05/13 00:12:20;;;;;;;5.13;4.10;;;;;;;;;;2055194;28;20034;-86
2023/05/13 00:13:21;;;;;;;8.27;4.83;;;;;;;;;;1692977;28;10349364;-87
2023/05/13 00:14:21;;;;;;;;;;;;;;;;;;2046995;29;20286;-86
2023/05/13 00:15:21;;;;;;;5.55;4.30;;;;;;;;;;2046735;29;19918;-87
2023/05/13 00:16:23;;;;;;;5.45;4.05;;;;;;;;;;2038691;29;20135;-87
2023/05/13 00:17:25;;;;;;;7.72;4.50;;;;;;;;;;2046819;29;20163;-86
2023/05/13 00:18:25;;;;;;;6.85;4.40;;;;;;;;;;2038828;29;20039;-87
2023/05/13 00:19:26;;;;;;;;;;;;;;;;;;2047389;29;20062;-86
2023/05/13 00:20:26;;;;;;;6.88;4.57;;;;;;;;;;2055453;28;19909;-87
2023/05/13 00:21:27;;;;;;;;;;;;;;;;;;2055677;28;20093;-86
2023/05/13 00:22:27;;;;;;;5.67;4.60;;;;;;;;;;2046735;29;20368;-87
2023/05/13 00:23:27;;;;;;;6.10;4.28;;;;;;;;;;2046671;29;20028;-87
2023/05/13 00:24:28;;;;;;;;;;;;;;;;;;2047245;29;20035;-87
2023/05/13 00:25:28;;;;;;;7.10;4.80;;;;;;;;;;2046727;29;19917;-86
2023/05/13 00:26:29;;;;;;;5.53;4.05;;;;;;;;;;2046749;29;20031;-87
2023/05/13 00:27:31;;;;;;;7.63;4.75;;;;;;;;;;1689617;29;10263189;-87
2023/05/13 00:28:32;;;;;;;5.20;4.40;;;;;;;;;;2039026;29;20531;-87
2023/05/13 00:29:32;;;;;;;;;;;;;;;;;;2039241;29;20130;-85
2023/05/13 00:30:32;;;;;;;7.38;4.93;;;;;;;;;;1692962;28;10364754;-87
2023/05/13 00:31:32;;;;;;;6.88;4.63;;;;;;;;;;2056799;28;20030;-87
2023/05/13 00:32:33;;;;;;;;;;;;;;;;;;2057578;28;20042;-86
2023/05/13 00:33:33;;;;;;;6.05;4.10;;;;;;;;;;2057015;28;19911;-87
2023/05/13 00:34:33;;;;;;;6.97;4.28;;;;;;;;;;1694362;28;10350250;-88
2023/05/13 00:35:34;;;;;;;;;;;;;;;;;;2040868;29;20040;-86
2023/05/13 00:36:35;;;;;;;5.03;4.00;;;;;;;;;;2048721;29;19986;-84
2023/05/13 00:37:35;;;;;;;;;;;;;;;;;;2046060;29;20035;-86
2023/05/13 00:38:36;;;;;;;4.40;4.00;;;;;;;;;;2040889;29;19921;-87
2023/05/13 00:39:37;;;;;;;5.20;4.03;;;;;;;;;;2051489;28;20094;-85
2023/05/13 00:40:41;;;;;;;;;;;;;;;;;;2054416;28;20522;-85
2023/05/13 00:41:41;;;;;;;4.60;4.13;;;;;;;;;;1705248;28;10249207;-87
2023/05/13 00:42:42;;;;;;;5.22;4.60;;;;;;;;;;2056822;28;20093;-87
2023/05/13 00:43:42;;;;;;;5.05;3.97;;;;;;;;;;2057204;28;20133;-87
2023/05/13 00:44:42;;;;;;;4.60;4.13;;;;;;;;;;2056976;28;20058;-87
2023/05/13 00:45:43;;;;;;;5.32;4.00;;;;;;;;;;2057367;28;20494;-87
2023/05/13 00:46:43;;;;;;;5.03;4.50;;;;;;;;;;2048425;29;20023;-87
2023/05/13 00:47:44;;;;;;;;;;;;;;;;;;2048919;29;20104;-87
2023/05/13 00:48:44;;;;;;;5.07;4.17;;;;;;;;;;2057043;28;19933;-87
2023/05/13 00:49:44;;;;;;;;;;;;;;;;;;2057428;28;20026;-87
2023/05/13 00:50:45;;;;;;;5.87;4.43;;;;;;;;;;2048364;29;19910;-87
2023/05/13 00:51:45;;;;;;;;;;;;;;;;;;2040688;29;20048;-86
2023/05/13 00:52:48;;;;;;;7.20;4.13;;;;;;;;;;2048438;29;19910;-87
2023/05/13 00:53:50;;;;;;;4.40;4.00;;;;;;;;;;2056925;28;20045;-87
2023/05/13 00:54:50;;;;;;;5.45;4.20;;;;;;;;;;2057219;28;20035;-87
2023/05/13 00:55:50;;;;;;;;;;;;;;;;;;2057342;28;20113;-87
2023/05/13 00:56:55;;;;;;;6.43;4.53;;;;;;;;;;2057116;28;19941;-87
2023/05/13 00:57:55;;;;;;;5.20;4.10;;;;;;;;;;1704527;28;10263913;-87
2023/05/13 00:58:56;;;;;;;5.07;3.50;;;;;;;;;;2048398;29;20043;-87
2023/05/13 00:59:56;;;;;;;4.80;4.32;;;;;;;;;;2048377;29;20364;-88
2023/05/13 01:01:03;;;;;;;;;;;;;;;;;;2057581;28;20114;-87
2023/05/13 01:02:15;;;;;;;5.65;3.97;;;;;;;;;;2056945;28;19910;-87
2023/05/13 01:03:25;;;;;;;6.07;3.95;;;;;;;;;;2048148;29;20023;-88
2023/05/13 01:04:37;;;;;;;5.63;4.10;;;;;;;;;;2049521;28;20487;-87
2023/05/13 01:06:14;;;;;;;4.40;4.00;;;;;;;;;;2048030;29;20502;-86
2023/05/13 01:07:33;;;;;;;5.18;4.00;;;;;;;;;;2053195;28;20061;-86
2023/05/13 01:09:02;;;;;;;5.53;4.35;;;;;;;;;;2048180;29;20027;-86
2023/05/13 01:10:17;;;;;;;5.93;4.45;;;;;;;;;;2052315;28;20038;-87
2023/05/13 01:11:26;;;;;;;6.10;4.68;;;;;;;;;;2056704;28;20109;-87
2023/05/13 01:12:35;;;;;;;6.13;4.53;;;;;;;;;;2056929;28;20465;-86
2023/05/13 01:13:41;;;;;;;6.30;4.38;;;;;;;;;;2056729;28;20023;-85
2023/05/13 01:14:53;;;;;;;5.07;3.75;;;;;;;;;;2056694;28;20022;-86
2023/05/13 01:16:08;;;;;;;4.15;3.75;;;;;;;;;;2059448;28;20031;-86
2023/05/13 01:17:19;;;;;;;4.65;4.05;;;;;;;;;;2056654;28;20027;-86
2023/05/13 01:18:27;;;;;;;4.47;4.00;;;;;;;;;;2047913;29;20395;-85
2023/05/13 01:19:51;;;;;;;5.60;4.25;;;;;;;;;;2049044;28;20467;-86
2023/05/13 01:20:52;;;;;;;5.38;4.32;;;;;;;;;;2056963;28;20354;-86
2023/05/13 01:21:53;;;;;;;5.35;3.80;;;;;;;;;;2056464;28;20029;-86
2023/05/13 01:22:55;;;;;;;6.28;3.95;;;;;;;;;;2048057;29;20079;-87
2023/05/13 01:23:55;;;;;;;5.78;4.00;;;;;;;;;;2048035;28;20031;-87
2023/05/13 01:24:56;;;;;;;;;;;;;;;;;;2056983;28;20062;-86
2023/05/13 01:25:56;;;;;;;4.80;4.33;;;;;;;;;;2047990;29;19977;-87
2023/05/13 01:26:57;;;;;;;;;;;;;;;;;;2048493;29;20027;-85
2023/05/13 01:27:58;;;;;;;5.53;4.33;;;;;;;;;;2056902;28;19917;-86
2023/05/13 01:28:58;;;;;;;4.25;3.75;;;;;;;;;;2047906;29;20046;-86
2023/05/13 01:29:58;;;;;;;;;;;;;;;;;;2040300;29;20467;-86
2023/05/13 01:30:59;;;;;;;7.05;4.40;;;;;;;;;;2048791;29;19966;-86
2023/05/13 01:32:01;;;;;;;4.38;3.92;;;;;;;;;;2039951;29;20042;-87
2023/05/13 01:33:02;;;;;;;4.97;3.65;;;;;;;;;;2045182;29;20086;-85
2023/05/13 01:34:02;;;;;;;;;;;;;;;;;;2052241;29;20023;-86
2023/05/13 01:35:04;;;;;;;6.17;3.73;;;;;;;;;;2064771;28;19997;-86
2023/05/13 01:36:05;;;;;;;4.13;3.70;;;;;;;;;;2058391;28;20015;-87
2023/05/13 01:37:06;;;;;;;5.72;4.10;;;;;;;;;;2050948;28;20011;-86
2023/05/13 01:38:07;;;;;;;;;;;;;;;;;;2058716;28;20043;-87
2023/05/13 01:39:08;;;;;;;6.28;4.38;;;;;;;;;;2065274;28;19973;-87
2023/05/13 01:40:09;;;;;;;;;;;;;;;;;;2062688;28;20058;-87
2023/05/13 01:41:09;;;;;;;5.88;4.45;;;;;;;;;;2057630;28;20008;-87
2023/05/13 01:42:10;;;;;;;4.90;4.40;;;;;;;;;;2047635;28;20130;-87
2023/05/13 01:43:10;;;;;;;;;;;;;;;;;;2048095;29;20039;-87
2023/05/13 01:44:10;;;;;;;8.20;4.70;;;;;;;;;;2048258;29;19996;-86
2023/05/13 01:45:11;;;;;;;;;;;;;;;;;;2048899;29;20051;-86
2023/05/13 01:46:12;;;;;;;6.97;4.50;;;;;;;;;;2056933;28;20195;-87
2023/05/13 01:47:12;;;;;;;5.10;4.45;;;;;;;;;;2048048;29;20031;-87
2023/05/13 01:48:13;;;;;;;;;;;;;;;;;;2050894;28;20101;-88
2023/05/13 01:49:13;;;;;;;6.67;4.67;;;;;;;;;;2039996;29;19914;-87
2023/05/13 01:50:13;;;;;;;;;;;;;;;;;;2048567;29;20503;-87
2023/05/13 01:51:14;;;;;;;5.10;4.22;;;;;;;;;;2048047;29;19922;-88
2023/05/13 01:52:15;;;;;;;5.95;4.50;;;;;;;;;;2040101;29;20496;-87
2023/05/13 01:53:15;;;;;;;;;;;;;;;;;;2048666;29;20031;-87
2023/05/13 01:54:15;;;;;;;4.63;4.15;;;;;;;;;;2059384;28;19914;-86
2023/05/13 01:55:16;;;;;;;;;;;;;;;;;;2057608;29;20024;-86
2023/05/13 01:56:16;;;;;;;7.37;4.27;;;;;;;;;;2058207;29;19899;-86
2023/05/13 01:57:17;;;;;;;6.05;4.70;;;;;;;;;;2066251;28;20019;-86
2023/05/13 01:58:18;;;;;;;;;;;;;;;;;;2063667;28;20085;-86
2023/05/13 01:59:19;;;;;;;7.43;4.50;;;;;;;;;;2062405;28;19984;-86
2023/05/13 02:00:20;;;;;;;5.40;4.75;;;;;;;;;;2058785;28;20224;-86
2023/05/13 02:01:20;;;;;;;5.57;4.50;;;;;;;;;;2048399;29;20039;-85
2023/05/13 02:02:21;;;;;;;;;;;;;;;;;;2048845;29;20035;-85
2023/05/13 02:03:21;;;;;;;5.85;4.43;;;;;;;;;;1698106;28;10243021;-85
2023/05/13 02:04:22;;;;;;;5.50;4.72;;;;;;;;;;2047964;29;20416;-86
2023/05/13 02:05:22;;;;;;;5.43;4.72;;;;;;;;;;1691848;28;10422817;-86
2023/05/13 02:06:22;;;;;;;6.68;5.22;;;;;;;;;;2048183;29;20031;-86
2023/05/13 02:07:23;;;;;;;;;;;;;;;;;;2057243;28;20027;-85
2023/05/13 02:08:26;;;;;;;5.87;4.90;;;;;;;;;;2048076;29;19973;-86
2023/05/13 02:09:26;;;;;;;5.43;4.60;;;;;;;;;;2048318;28;20027;-87
2023/05/13 02:10:27;;;;;;;;;;;;;;;;;;2048581;29;20444;-86
2023/05/13 02:11:27;;;;;;;5.25;4.65;;;;;;;;;;2040127;29;19967;-87
2023/05/13 02:12:27;;;;;;;;;;;;;;;;;;2048187;29;20035;-86
2023/05/13 02:13:28;;;;;;;6.10;4.88;;;;;;;;;;2056417;28;19910;-86
2023/05/13 02:14:28;;;;;;;;;;;;;;;;;;2048092;29;20067;-86
2023/05/13 02:15:30;;;;;;;5.73;4.53;;;;;;;;;;2047946;29;20212;-87
2023/05/13 02:16:30;;;;;;;6.93;4.72;;;;;;;;;;2056686;28;20579;-87
2023/05/13 02:17:31;;;;;;;;;;;;;;;;;;2056763;28;20037;-87
2023/05/13 02:18:31;;;;;;;5.57;4.93;;;;;;;;;;2047784;29;19917;-87
2023/05/13 02:19:31;;;;;;;5.65;4.63;;;;;;;;;;2047597;29;20122;-86
2023/05/13 02:20:32;;;;;;;;;;;;;;;;;;2056691;28;20070;-84
2023/05/13 02:21:32;;;;;;;6.65;5.15;;;;;;;;;;2056262;28;19910;-86
2023/05/13 02:22:32;;;;;;;;;;;;;;;;;;2048189;29;20194;-86
2023/05/13 02:23:33;;;;;;;5.23;4.67;;;;;;;;;;2048049;29;19918;-87
2023/05/13 02:24:35;;;;;;;;;;;;;;;;;;2056920;28;20104;-86
2023/05/13 02:25:35;;;;;;;5.38;4.40;;;;;;;;;;2056695;28;19928;-86
2023/05/13 02:26:36;;;;;;;6.30;5.18;;;;;;;;;;2055059;29;20039;-86
2023/05/13 02:27:36;;;;;;;;;;;;;;;;;;2049185;29;20031;-86
2023/05/13 02:28:36;;;;;;;5.70;4.43;;;;;;;;;;2047959;29;19964;-86
2023/05/13 02:29:37;;;;;;;5.95;4.85;;;;;;;;;;2040023;29;20023;-86
2023/05/13 02:30:37;;;;;;;;;;;;;;;;;;2048478;29;20019;-86
2023/05/13 02:31:38;;;;;;;6.47;5.27;;;;;;;;;;2056656;28;19914;-87
2023/05/13 02:32:41;;;;;;;;;;;;;;;;;;2048064;29;20531;-86
2023/05/13 02:33:41;;;;;;;6.32;4.80;;;;;;;;;;2048209;28;20019;-86
2023/05/13 02:34:42;;;;;;;;;;;;;;;;;;2048297;29;20137;-86
2023/05/13 02:35:43;;;;;;;5.65;4.57;;;;;;;;;;2047867;29;19962;-86
2023/05/13 02:36:44;;;;;;;5.43;4.78;;;;;;;;;;2056767;28;20090;-86
2023/05/13 02:37:45;;;;;;;;;;;;;;;;;;2057014;28;20098;-86
2023/05/13 02:38:45;;;;;;;5.90;4.70;;;;;;;;;;2056605;28;19937;-86
2023/05/13 02:39:45;;;;;;;;;;;;;;;;;;2056918;28;20027;-86
2023/05/13 02:40:47;;;;;;;7.03;5.40;;;;;;;;;;2047412;29;20342;-86
2023/05/13 02:41:47;;;;;;;6.43;4.97;;;;;;;;;;2047495;28;20483;-87
2023/05/13 02:42:47;;;;;;;;;;;;;;;;;;2047820;29;20037;-87
2023/05/13 02:43:48;;;;;;;5.70;4.70;;;;;;;;;;2047599;29;19949;-87
2023/05/13 02:44:48;;;;;;;;;;;;;;;;;;2048181;29;20495;-87
2023/05/13 02:45:49;;;;;;;6.03;4.47;;;;;;;;;;2047525;29;19982;-86
2023/05/13 02:46:50;;;;;;;5.82;5.22;;;;;;;;;;2039798;29;20111;-87
2023/05/13 02:47:50;;;;;;;5.35;4.38;;;;;;;;;;2047666;28;20118;-88
2023/05/13 02:48:51;;;;;;;;;;;;;;;;;;2056643;28;20041;-88
2023/05/13 02:49:54;;;;;;;5.00;4.47;;;;;;;;;;2056290;28;19910;-88
2023/05/13 02:50:55;;;;;;;6.05;4.82;;;;;;;;;;2055745;28;20561;-87
2023/05/13 02:51:55;;;;;;;;;;;;;;;;;;2056712;28;20096;-88
2023/05/13 02:52:55;;;;;;;7.47;4.37;;;;;;;;;;2056366;28;19910;-87
2023/05/13 02:53:56;;;;;;;8.13;4.78;;;;;;;;;;2047138;28;20380;-87
2023/05/13 02:54:56;;;;;;;;;;;;;;;;;;2040028;29;20146;-87
2023/05/13 02:55:56;;;;;;;6.35;4.57;;;;;;;;;;2047316;29;19910;-87
2023/05/13 02:56:57;;;;;;;5.45;4.95;;;;;;;;;;2047514;29;20070;-87
2023/05/13 02:57:57;;;;;;;5.70;5.10;;;;;;;;;;2039663;29;20110;-88
2023/05/13 02:58:57;;;;;;;7.47;5.55;;;;;;;;;;2039210;29;20470;-87
2023/05/13 02:59:59;;;;;;;;;;;;;;;;;;2048063;29;20165;-87
2023/05/13 03:00:59;;;;;;;5.53;4.68;;;;;;;;;;2047247;29;20017;-88
2023/05/13 03:02:00;;;;;;;8.52;5.10;;;;;;;;;;2047387;29;20042;-87
2023/05/13 03:03:00;;;;;;;;;;;;;;;;;;2047942;29;20023;-87
2023/05/13 03:04:01;;;;;;;6.78;5.03;;;;;;;;;;2039449;29;19918;-87
2023/05/13 03:05:01;;;;;;;9.27;5.55;;;;;;;;;;2047567;28;20035;-87
2023/05/13 03:06:02;;;;;;;6.25;4.90;;;;;;;;;;2047326;29;20118;-87
2023/05/13 03:07:02;;;;;;;5.75;5.15;;;;;;;;;;2047380;29;20031;-87
2023/05/13 03:08:03;;;;;;;;;;;;;;;;;;2056589;28;20027;-87
2023/05/13 03:09:04;;;;;;;6.90;4.78;;;;;;;;;;2055922;28;20009;-87
2023/05/13 03:10:05;;;;;;;6.07;4.88;;;;;;;;;;2056467;28;20039;-87
2023/05/13 03:11:05;;;;;;;6.22;4.30;;;;;;;;;;2055875;28;20023;-87
2023/05/13 03:12:05;;;;;;;;;;;;;;;;;;2056264;28;20530;-87
2023/05/13 03:13:06;;;;;;;4.63;4.22;;;;;;;;;;2047359;29;19953;-87
2023/05/13 03:14:06;;;;;;;;;;;;;;;;;;2047801;29;20463;-87
2023/05/13 03:15:07;;;;;;;5.53;4.65;;;;;;;;;;2047495;29;20005;-87
2023/05/13 03:16:07;;;;;;;5.40;4.80;;;;;;;;;;2047004;29;20438;-86
2023/05/13 03:17:10;;;;;;;;;;;;;;;;;;2039788;29;20038;-87
2023/05/13 03:18:11;;;;;;;5.78;4.38;;;;;;;;;;2047752;28;20012;-86
2023/05/13 03:19:11;;;;;;;;;;;;;;;;;;2050304;29;20471;-85
2023/05/13 03:20:12;;;;;;;6.30;4.83;;;;;;;;;;2054144;29;20127;-86
2023/05/13 03:21:12;;;;;;;;;;;;;;;;;;2048216;29;20050;-86
2023/05/13 03:22:12;;;;;;;5.30;4.53;;;;;;;;;;2047108;29;19961;-86
2023/05/13 03:23:13;;;;;;;;;;;;;;;;;;2039982;29;20383;-86
2023/05/13 03:24:13;;;;;;;8.93;4.73;;;;;;;;;;2047210;29;20050;-87
2023/05/13 03:25:13;;;;;;;;;;;;;;;;;;2056001;28;20062;-86
2023/05/13 03:26:14;;;;;;;9.60;4.65;;;;;;;;;;1708075;28;10123402;-87
2023/05/13 03:27:14;;;;;;;;;;;;;;;;;;2056362;28;20051;-87
2023/05/13 03:28:14;;;;;;;5.97;4.22;;;;;;;;;;2056153;28;20282;-88
2023/05/13 03:29:15;;;;;;;5.72;4.63;;;;;;;;;;2055791;28;20045;-88
2023/05/13 03:30:15;;;;;;;;;;;;;;;;;;2056123;28;20491;-87
2023/05/13 03:31:16;;;;;;;5.60;4.97;;;;;;;;;;2047289;29;19915;-86
2023/05/13 03:32:16;;;;;;;5.95;5.18;;;;;;;;;;2046829;29;20023;-86
2023/05/13 03:33:16;;;;;;;;;;;;;;;;;;2047875;29;20062;-86
2023/05/13 03:34:17;;;;;;;7.60;5.18;;;;;;;;;;2047150;29;19953;-86
2023/05/13 03:35:18;;;;;;;;;;;;;;;;;;2047686;29;20032;-87
2023/05/13 03:36:18;;;;;;;7.15;4.93;;;;;;;;;;2056141;28;19961;-87
2023/05/13 03:37:18;;;;;;;6.45;5.05;;;;;;;;;;2047057;29;20039;-87
2023/05/13 03:38:19;;;;;;;5.70;4.90;;;;;;;;;;2047202;29;20031;-87
2023/05/13 03:39:19;;;;;;;6.70;5.50;;;;;;;;;;2047048;29;20031;-87
2023/05/13 03:40:19;;;;;;;;;;;;;;;;;;2039694;29;20099;-87
2023/05/13 03:41:20;;;;;;;5.60;4.47;;;;;;;;;;2039319;29;19959;-87
2023/05/13 03:42:22;;;;;;;;;;;;;;;;;;2047277;29;20035;-87
2023/05/13 03:43:24;;;;;;;6.03;5.32;;;;;;;;;;2047520;28;20000;-87
2023/05/13 03:44:24;;;;;;;8.57;4.97;;;;;;;;;;2055898;28;20458;-86
2023/05/13 03:45:25;;;;;;;;;;;;;;;;;;2056564;28;20035;-86
2023/05/13 03:46:26;;;;;;;6.25;5.45;;;;;;;;;;2055949;28;19910;-86
2023/05/13 03:47:26;;;;;;;6.72;5.10;;;;;;;;;;2056101;28;20038;-86
2023/05/13 03:48:26;;;;;;;;;;;;;;;;;;2047251;29;20166;-86
2023/05/13 03:49:27;;;;;;;6.23;5.47;;;;;;;;;;2039222;29;19961;-86
2023/05/13 03:50:27;;;;;;;;;;;;;;;;;;2039861;29;20027;-86
2023/05/13 03:51:28;;;;;;;6.20;4.97;;;;;;;;;;2047116;29;19914;-86
2023/05/13 03:52:29;;;;;;;6.55;5.03;;;;;;;;;;2055535;28;20269;-86
2023/05/13 03:53:29;;;;;;;;;;;;;;;;;;2056004;28;20392;-86
2023/05/13 03:54:30;;;;;;;7.50;4.83;;;;;;;;;;2047059;29;19920;-86
2023/05/13 03:55:30;;;;;;;;;;;;;;;;;;2047649;29;20038;-86
2023/05/13 03:56:30;;;;;;;7.75;5.75;;;;;;;;;;2055480;28;19910;-86
2023/05/13 03:57:31;;;;;;;6.60;5.20;;;;;;;;;;1703667;28;10259122;-85
2023/05/13 03:58:31;;;;;;;;;;;;;;;;;;2047301;29;20438;-86
2023/05/13 03:59:31;;;;;;;9.73;5.07;;;;;;;;;;2038933;29;19918;-86
2023/05/13 04:00:31;;;;;;;;;;;;;;;;;;2047295;29;20031;-86
2023/05/13 04:01:33;;;;;;;8.80;5.20;;;;;;;;;;2047145;29;20386;-86
2023/05/13 04:02:34;;;;;;;7.28;5.15;;;;;;;;;;2046892;29;20126;-86
2023/05/13 04:03:34;;;;;;;;;;;;;;;;;;2047356;29;20407;-86
2023/05/13 04:04:35;;;;;;;5.10;4.57;;;;;;;;;;2046966;29;19911;-86
2023/05/13 04:05:35;;;;;;;;;;;;;;;;;;2046842;28;20027;-86
2023/05/13 04:06:35;;;;;;;5.40;4.82;;;;;;;;;;2055415;28;20265;-86
2023/05/13 04:07:36;;;;;;;9.75;5.30;;;;;;;;;;2055613;28;20032;-86
2023/05/13 04:08:36;;;;;;;7.55;5.53;;;;;;;;;;2046937;29;20058;-86
2023/05/13 04:09:37;;;;;;;6.28;5.03;;;;;;;;;;2047014;29;20078;-85
2023/05/13 04:10:38;;;;;;;6.78;4.88;;;;;;;;;;2024650;28;20139;-86
2023/05/13 04:11:40;;;;;;;5.93;4.72;;;;;;;;;;2033971;29;20193;-86
2023/05/13 04:12:40;;;;;;;6.68;5.28;;;;;;;;;;2048673;29;20051;-85
2023/05/13 04:13:42;;;;;;;;;;;;;;;;;;2042184;29;20132;-86
2023/05/13 04:14:43;;;;;;;5.63;4.95;;;;;;;;;;2041727;29;20295;-86
2023/05/13 04:15:43;;;;;;;6.47;5.05;;;;;;;;;;2030124;29;20055;-86
2023/05/13 04:16:43;;;;;;;6.90;5.00;;;;;;;;;;2036680;29;20043;-86
2023/05/13 04:17:44;;;;;;;6.43;5.43;;;;;;;;;;2033313;29;20412;-86
2023/05/13 04:18:44;;;;;;;10.85;5.18;;;;;;;;;;2024333;29;20112;-86
2023/05/13 04:19:45;;;;;;;8.45;5.63;;;;;;;;;;2023911;29;20063;-86
2023/05/13 04:20:45;;;;;;;6.30;4.90;;;;;;;;;;2023550;29;20104;-86
2023/05/13 04:21:45;;;;;;;8.43;5.50;;;;;;;;;;2023428;29;20711;-86
2023/05/13 04:22:46;;;;;;;;;;;;;;;;;;2024075;29;20101;-85
2023/05/13 04:23:47;;;;;;;6.53;5.05;;;;;;;;;;2023623;29;19915;-87
2023/05/13 04:24:50;;;;;;;6.60;5.38;;;;;;;;;;2023584;29;20524;-86
2023/05/13 04:25:51;;;;;;;6.20;4.90;;;;;;;;;;2023598;29;20048;-85
2023/05/13 04:26:51;;;;;;;;;;;;;;;;;;2032226;29;20051;-86
2023/05/13 04:27:52;;;;;;;7.50;4.60;;;;;;;;;;2031155;29;19950;-87
2023/05/13 04:28:52;;;;;;;6.82;4.57;;;;;;;;;;1691255;29;10242082;-87
2023/05/13 04:29:52;;;;;;;6.07;5.03;;;;;;;;;;2031294;29;20036;-88
2023/05/13 04:30:53;;;;;;;6.93;5.15;;;;;;;;;;2023285;29;20379;-88
2023/05/13 04:31:53;;;;;;;;;;;;;;;;;;2032562;29;20111;-88
2023/05/13 04:32:54;;;;;;;6.10;4.10;;;;;;;;;;2041118;29;19958;-86
2023/05/13 04:33:55;;;;;;;;;;;;;;;;;;2047235;28;20139;-86
2023/05/13 04:34:57;;;;;;;8.15;4.18;;;;;;;;;;2050052;28;19910;-87
2023/05/13 04:35:57;;;;;;;6.25;4.30;;;;;;;;;;2048680;29;20042;-87
2023/05/13 04:36:57;;;;;;;5.32;3.95;;;;;;;;;;2045272;29;20224;-87
2023/05/13 04:37:58;;;;;;;5.53;4.40;;;;;;;;;;2042814;29;20114;-86
2023/05/13 04:38:58;;;;;;;7.38;4.00;;;;;;;;;;2041804;29;20581;-87
2023/05/13 04:39:59;;;;;;;6.82;3.78;;;;;;;;;;2032296;29;20572;-87
2023/05/13 04:40:59;;;;;;;8.07;4.28;;;;;;;;;;2031389;29;20289;-87
2023/05/13 04:42:00;;;;;;;7.03;4.30;;;;;;;;;;2033290;29;20040;-87
2023/05/13 04:43:00;;;;;;;7.55;4.38;;;;;;;;;;2023619;29;20067;-87
2023/05/13 04:44:01;;;;;;;6.78;5.22;;;;;;;;;;2031547;29;20043;-87
2023/05/13 04:45:02;;;;;;;7.72;4.78;;;;;;;;;;2034405;29;20481;-88
2023/05/13 04:46:02;;;;;;;9.18;5.25;;;;;;;;;;2031775;29;20048;-86
2023/05/13 04:47:03;;;;;;;8.13;5.05;;;;;;;;;;2027043;29;20025;-87
2023/05/13 04:48:03;;;;;;;7.13;4.20;;;;;;;;;;2031161;29;20024;-88
2023/05/13 04:49:04;;;;;;;7.95;4.10;;;;;;;;;;2031326;29;20069;-88
2023/05/13 04:50:05;;;;;;;8.48;4.30;;;;;;;;;;2034431;29;20092;-87
2023/05/13 04:51:05;;;;;;;5.25;3.92;;;;;;;;;;2023436;29;20037;-87
2023/05/13 04:52:06;;;;;;;9.50;4.10;;;;;;;;;;2034828;29;20172;-88
2023/05/13 04:53:06;;;;;;;7.85;4.10;;;;;;;;;;2039866;29;20464;-86
2023/05/13 04:54:07;;;;;;;9.55;4.78;;;;;;;;;;2039717;29;20034;-88
2023/05/13 04:55:10;;;;;;;6.53;4.40;;;;;;;;;;1682313;29;10286173;-88
2023/05/13 04:56:10;;;;;;;7.30;4.65;;;;;;;;;;2031579;29;20040;-88
2023/05/13 04:57:11;;;;;;;6.70;4.20;;;;;;;;;;1687560;29;10129536;-88
2023/05/13 04:58:11;;;;;;;6.30;4.68;;;;;;;;;;2031162;29;20032;-88
2023/05/13 04:59:11;;;;;;;6.22;4.20;;;;;;;;;;2039362;29;20582;-88
2023/05/13 05:00:12;;;;;;;8.55;5.05;;;;;;;;;;2031219;29;20063;-88
2023/05/13 05:01:13;;;;;;;7.22;4.35;;;;;;;;;;2030988;29;20103;-88
2023/05/13 05:02:13;;;;;;;7.50;5.05;;;;;;;;;;2039598;29;20095;-88
2023/05/13 05:03:14;;;;;;;7.47;4.38;;;;;;;;;;2039319;29;20036;-88
2023/05/13 05:04:14;;;;;;;8.98;4.38;;;;;;;;;;2039301;29;20150;-88
2023/05/13 05:05:15;;;;;;;6.70;4.25;;;;;;;;;;2039757;29;20382;-88
2023/05/13 05:06:15;;;;;;;9.10;4.32;;;;;;;;;;2044461;29;20047;-88
2023/05/13 05:07:16;;;;;;;8.73;4.80;;;;;;;;;;2041893;29;20032;-86
2023/05/13 05:08:16;;;;;;;8.05;4.38;;;;;;;;;;2039818;29;20182;-87
2023/05/13 05:09:17;;;;;;;7.40;3.88;;;;;;;;;;2039913;29;20039;-88
2023/05/13 05:10:18;;;;;;;14.63;4.50;;;;;;;;;;2039792;29;20382;-88
2023/05/13 05:11:21;;;;;;;6.93;4.30;;;;;;;;;;2031317;29;20039;-88
2023/05/13 05:12:21;;;;;;;8.40;5.00;;;;;;;;;;2023982;29;20032;-88
2023/05/13 05:13:21;;;;;;;9.13;5.03;;;;;;;;;;2023616;29;20449;-88
2023/05/13 05:14:22;;;;;;;8.55;4.68;;;;;;;;;;2031291;29;20070;-89
2023/05/13 05:15:22;;;;;;;8.43;4.80;;;;;;;;;;2031483;29;20040;-88
2023/05/13 05:16:23;;;;;;;10.90;4.50;;;;;;;;;;2039606;29;20070;-89
2023/05/13 05:17:23;;;;;;;8.77;4.88;;;;;;;;;;2032590;29;20370;-89
2023/05/13 05:18:23;;;;;;;5.75;4.18;;;;;;;;;;2032404;29;20042;-89
2023/05/13 05:19:24;;;;;;;8.30;5.03;;;;;;;;;;2041035;29;20027;-88
2023/05/13 05:20:24;;;;;;;7.97;5.07;;;;;;;;;;2032599;29;20132;-88
2023/05/13 05:21:25;;;;;;;7.15;4.70;;;;;;;;;;2034271;29;20024;-87
2023/05/13 05:22:26;;;;;;;7.75;4.15;;;;;;;;;;2040846;29;20093;-89
2023/05/13 05:23:26;;;;;;;6.10;4.78;;;;;;;;;;2032295;29;20024;-88
2023/05/13 05:24:27;;;;;;;6.18;4.32;;;;;;;;;;2032307;29;20107;-89
2023/05/13 05:25:29;;;;;;;7.18;4.22;;;;;;;;;;2032149;29;20055;-88
2023/05/13 05:26:29;;;;;;;8.05;4.65;;;;;;;;;;2032175;29;20028;-89
2023/05/13 05:27:30;;;;;;;7.50;5.25;;;;;;;;;;2040159;29;20499;-88
2023/05/13 05:28:30;;;;;;;8.40;4.68;;;;;;;;;;2032173;29;20032;-88
2023/05/13 05:29:30;;;;;;;7.00;4.75;;;;;;;;;;2024162;29;20044;-88
2023/05/13 05:30:38;;;;;;;7.55;5.00;;;;;;;;;;2032225;29;20107;-88
2023/05/13 05:31:38;;;;;;;9.65;5.25;;;;;;;;;;2032017;29;20028;-88
2023/05/13 05:32:39;;;;;;;6.95;5.10;;;;;;;;;;2032279;29;20381;-88
2023/05/13 05:33:39;;;;;;;8.88;5.22;;;;;;;;;;2040942;29;20028;-88
2023/05/13 05:34:40;;;;;;;8.60;5.63;;;;;;;;;;2032342;29;20035;-88
2023/05/13 05:35:40;;;;;;;9.95;5.65;;;;;;;;;;2032321;29;20531;-88
2023/05/13 05:36:41;;;;;;;8.00;5.18;;;;;;;;;;2040670;29;20023;-88
2023/05/13 05:37:41;;;;;;;9.90;5.63;;;;;;;;;;2040730;29;20110;-89
2023/05/13 05:38:41;;;;;;;11.73;5.60;;;;;;;;;;2032610;29;20032;-87
2023/05/13 05:39:42;;;;;;;8.23;5.13;;;;;;;;;;2024699;29;20033;-87
2023/05/13 05:40:43;;;;;;;7.80;5.60;;;;;;;;;;2024280;29;20380;-87
2023/05/13 05:41:46;;;;;;;9.25;5.20;;;;;;;;;;1684498;29;10264395;-87
2023/05/13 05:42:50;;;;;;;9.27;5.18;;;;;;;;;;2040477;29;20024;-87
2023/05/13 05:43:50;;;;;;;10.00;5.45;;;;;;;;;;2040644;29;20036;-87
2023/05/13 05:44:54;;;;;;;8.77;4.85;;;;;;;;;;2031723;29;20020;-87
2023/05/13 05:45:57;;;;;;;6.88;4.55;;;;;;;;;;2032358;29;20032;-86
2023/05/13 05:47:05;;;;;;;8.95;5.63;;;;;;;;;;2040429;29;20027;-85
2023/05/13 05:48:06;;;;;;;7.28;5.10;;;;;;;;;;2031846;29;20051;-87
2023/05/13 05:49:07;;;;;;;7.47;5.28;;;;;;;;;;2031893;29;20032;-87
2023/05/13 05:50:07;;;;;;;8.25;4.80;;;;;;;;;;2024168;29;20032;-88
2023/05/13 05:51:08;;;;;;;8.60;4.43;;;;;;;;;;2023749;29;20040;-87
2023/05/13 05:52:10;;;;;;;7.20;4.47;;;;;;;;;;2031291;29;20024;-87
2023/05/13 05:53:10;;;;;;;9.48;4.72;;;;;;;;;;2031693;29;20024;-86
2023/05/13 05:54:10;;;;;;;9.30;4.50;;;;;;;;;;2039913;29;20040;-87
2023/05/13 05:55:11;;;;;;;10.18;4.55;;;;;;;;;;2040297;29;20063;-87
2023/05/13 05:56:11;;;;;;;10.55;4.65;;;;;;;;;;2040550;29;20475;-87
2023/05/13 05:57:11;;;;;;;9.48;5.13;;;;;;;;;;2031778;29;20378;-87
2023/05/13 05:58:15;;;;;;;9.27;5.30;;;;;;;;;;2024035;29;20084;-87
2023/05/13 05:59:16;;;;;;;8.38;4.80;;;;;;;;;;2027276;29;20079;-85
2023/05/13 06:00:17;;;;;;;7.93;4.80;;;;;;;;;;2036540;29;20046;-87
2023/05/13 06:01:18;;;;;;;9.55;4.82;;;;;;;;;;2032819;29;20035;-87
2023/05/13 06:02:18;;;;;;;10.98;4.40;;;;;;;;;;2032898;29;20050;-87
2023/05/13 06:03:19;;;;;;;10.05;4.78;;;;;;;;;;2033103;29;20024;-87
2023/05/13 06:04:19;;;;;;;7.15;4.97;;;;;;;;;;2025287;29;20024;-87
2023/05/13 06:05:20;;;;;;;10.10;5.35;;;;;;;;;;2033177;29;20100;-87
2023/05/13 06:06:20;;;;;;;6.55;4.85;;;;;;;;;;2032645;29;20606;-87
2023/05/13 06:07:21;;;;;;;9.45;5.38;;;;;;;;;;2033065;29;20091;-87
2023/05/13 06:08:28;;;;;;;7.78;4.93;;;;;;;;;;2040882;29;20381;-87
2023/05/13 06:09:29;;;;;;;7.72;4.68;;;;;;;;;;2044291;29;20027;-88
2023/05/13 06:10:29;;;;;;;7.88;5.05;;;;;;;;;;2041691;29;20035;-87
2023/05/13 06:11:30;;;;;;;7.72;4.88;;;;;;;;;;2041589;29;20042;-87
2023/05/13 06:12:31;;;;;;;6.68;4.72;;;;;;;;;;2041591;29;20472;-88
2023/05/13 06:13:32;;;;;;;10.98;5.88;;;;;;;;;;2033031;29;20024;-87
2023/05/13 06:14:32;;;;;;;7.13;5.50;;;;;;;;;;2033032;29;20500;-87
2023/05/13 06:15:32;;;;;;;8.50;5.53;;;;;;;;;;2040241;29;20067;-88
2023/05/13 06:16:33;;;;;;;10.40;6.90;;;;;;;;;;2036776;29;20042;-88